createdAt,value
2018-06-17T00:02:24.225Z,14.70
2018-06-17T00:04:52.634Z,14.70
2018-06-17T00:07:21.110Z,14.70
2018-06-17T00:09:49.485Z,14.70
2018-06-17T00:12:17.970Z,14.70
2018-06-17T00:14:46.403Z,14.70
2018-06-17T00:17:14.853Z,14.70
2018-06-17T00:19:43.353Z,14.60
2018-06-17T00:22:11.898Z,14.40
2018-06-17T00:24:40.319Z,14.40
2018-06-17T00:27:08.753Z,14.40
2018-06-17T00:29:37.201Z,14.30
2018-06-17T00:32:05.626Z,14.30
2018-06-17T00:34:34.089Z,14.40
2018-06-17T00:37:02.544Z,14.40
2018-06-17T00:39:30.963Z,14.40
2018-06-17T00:41:59.397Z,14.40
2018-06-17T00:44:27.824Z,14.50
2018-06-17T00:46:56.259Z,14.50
2018-06-17T00:49:24.725Z,14.50
2018-06-17T00:51:53.157Z,14.50
2018-06-17T00:54:21.612Z,14.50
2018-06-17T00:59:23.809Z,14.50
2018-06-17T01:01:52.237Z,14.50
2018-06-17T01:04:20.720Z,14.40
2018-06-17T01:06:49.127Z,14.40
2018-06-17T01:09:17.552Z,14.40
2018-06-17T01:11:45.973Z,14.40
2018-06-17T01:14:15.428Z,14.40
2018-06-17T01:16:43.887Z,14.50
2018-06-17T01:21:40.530Z,14.50
2018-06-17T01:24:08.959Z,14.60
2018-06-17T01:26:37.393Z,14.60
2018-06-17T01:29:05.823Z,14.60
2018-06-17T01:31:34.249Z,14.70
2018-06-17T01:34:02.701Z,14.70
2018-06-17T01:36:31.100Z,14.70
2018-06-17T01:38:59.532Z,14.70
2018-06-17T01:41:27.988Z,14.70
2018-06-17T01:43:56.424Z,14.70
2018-06-17T01:46:24.842Z,14.70
2018-06-17T01:48:53.256Z,14.70
2018-06-17T01:51:21.693Z,14.70
2018-06-17T01:53:50.135Z,14.70
2018-06-17T01:56:18.532Z,14.70
2018-06-17T01:58:46.956Z,14.60
2018-06-17T02:01:15.394Z,14.60
2018-06-17T02:03:49.143Z,14.60
2018-06-17T02:06:22.867Z,14.60
2018-06-17T02:08:56.701Z,14.50
2018-06-17T02:11:30.541Z,14.50
2018-06-17T02:15:01.838Z,14.50
2018-06-17T02:17:30.248Z,14.50
2018-06-17T02:19:58.693Z,14.50
2018-06-17T02:22:27.105Z,14.40
2018-06-17T02:24:55.557Z,14.30
2018-06-17T02:27:23.994Z,14.30
2018-06-17T02:29:52.547Z,14.20
2018-06-17T02:32:21.013Z,14.20
2018-06-17T02:34:49.478Z,14.20
2018-06-17T02:37:17.861Z,14.20
2018-06-17T02:39:46.305Z,14.10
2018-06-17T02:42:14.702Z,14.10
2018-06-17T02:44:43.136Z,14.10
2018-06-17T02:47:17.042Z,14.10
2018-06-17T02:49:47.708Z,14.10
2018-06-17T02:52:21.524Z,14.10
2018-06-17T02:54:50.140Z,14.20
2018-06-17T02:57:19.739Z,14.20
2018-06-17T02:59:48.323Z,14.30
2018-06-17T03:02:17.193Z,14.40
2018-06-17T03:04:45.629Z,14.40
2018-06-17T03:07:14.043Z,14.50
2018-06-17T03:09:42.570Z,14.50
2018-06-17T03:12:10.981Z,14.60
2018-06-17T03:14:39.381Z,14.70
2018-06-17T03:17:07.880Z,14.70
2018-06-17T03:19:36.312Z,14.70
2018-06-17T03:22:04.780Z,14.70
2018-06-17T03:24:38.521Z,14.80
2018-06-17T03:29:45.847Z,14.90
2018-06-17T03:32:19.643Z,14.90
2018-06-17T03:34:52.232Z,15.00
2018-06-17T03:37:20.678Z,15.00
2018-06-17T03:39:49.084Z,15.10
2018-06-17T03:42:17.535Z,15.10
2018-06-17T03:44:45.944Z,15.20
2018-06-17T03:47:14.372Z,15.20
2018-06-17T03:49:42.854Z,15.20
2018-06-17T03:54:39.372Z,15.30
2018-06-17T03:57:07.848Z,15.30
2018-06-17T03:59:36.231Z,15.40
2018-06-17T04:02:04.681Z,15.40
2018-06-17T04:04:38.540Z,15.40
2018-06-17T04:07:07.161Z,15.40
2018-06-17T04:09:35.569Z,15.50
2018-06-17T04:12:04.017Z,15.50
2018-06-17T04:14:32.439Z,15.60
2018-06-17T04:17:06.291Z,15.60
2018-06-17T04:19:34.694Z,15.70
2018-06-17T04:22:03.202Z,15.70
2018-06-17T04:24:31.597Z,15.80
2018-06-17T04:27:00.152Z,15.80
2018-06-17T04:29:28.617Z,15.90
2018-06-17T04:31:57.080Z,15.90
2018-06-17T04:34:25.483Z,16.00
2018-06-17T04:36:53.926Z,16.10
2018-06-17T04:39:22.381Z,16.20
2018-06-17T04:41:50.795Z,16.30
2018-06-17T04:44:19.206Z,16.50
2018-06-17T04:46:48.016Z,16.70
2018-06-17T04:49:16.448Z,17.00
2018-06-17T04:51:44.929Z,17.00
2018-06-17T04:54:13.448Z,17.20
2018-06-17T04:56:41.927Z,17.50
2018-06-17T04:59:10.328Z,17.60
2018-06-17T05:01:38.780Z,17.80
2018-06-17T05:04:07.437Z,17.80
2018-06-17T05:06:35.853Z,17.90
2018-06-17T05:09:06.506Z,18.00
2018-06-17T05:11:34.921Z,18.00
2018-06-17T05:14:03.446Z,18.00
2018-06-17T05:16:32.057Z,18.10
2018-06-17T05:19:00.507Z,18.20
2018-06-17T05:21:28.928Z,18.20
2018-06-17T05:23:57.376Z,18.30
2018-06-17T05:26:25.789Z,18.20
2018-06-17T05:28:54.205Z,18.30
2018-06-17T05:31:22.685Z,18.50
2018-06-17T05:33:51.134Z,18.50
2018-06-17T05:36:19.524Z,18.70
2018-06-17T05:38:47.940Z,18.90
2018-06-17T05:41:16.356Z,19.10
2018-06-17T05:43:44.813Z,19.10
2018-06-17T05:46:13.269Z,19.00
2018-06-17T05:48:41.685Z,19.00
2018-06-17T05:51:10.093Z,18.90
2018-06-17T05:53:38.532Z,18.90
2018-06-17T05:56:06.958Z,19.00
2018-06-17T05:58:35.423Z,19.00
2018-06-17T06:01:03.870Z,19.20
2018-06-17T06:03:32.298Z,19.20
2018-06-17T06:06:00.706Z,19.20
2018-06-17T06:08:29.159Z,19.60
2018-06-17T06:10:57.566Z,19.90
2018-06-17T06:13:25.992Z,20.70
2018-06-17T06:15:54.426Z,20.70
2018-06-17T06:18:22.863Z,21.10
2018-06-17T06:20:51.281Z,21.50
2018-06-17T06:23:19.748Z,21.90
2018-06-17T06:25:48.173Z,22.10
2018-06-17T06:28:16.607Z,22.90
2018-06-17T06:30:45.029Z,23.90
2018-06-17T06:33:13.497Z,24.90
2018-06-17T06:35:41.893Z,25.00
2018-06-17T06:38:10.520Z,25.20
2018-06-17T06:40:38.908Z,24.50
2018-06-17T06:43:07.680Z,24.50
2018-06-17T06:45:36.251Z,24.50
2018-06-17T06:48:05.035Z,25.00
2018-06-17T06:50:33.550Z,25.70
2018-06-17T06:53:02.001Z,26.50
2018-06-17T06:55:30.484Z,27.70
2018-06-17T06:57:58.929Z,29.00
2018-06-17T07:00:27.404Z,28.40
2018-06-17T07:03:07.105Z,26.40
2018-06-17T07:05:46.756Z,25.10
2018-06-17T07:08:26.420Z,24.70
2018-06-17T07:10:54.858Z,24.90
2018-06-17T07:13:23.304Z,25.00
2018-06-17T07:16:02.974Z,25.90
2018-06-17T07:18:35.012Z,25.20
2018-06-17T07:21:03.500Z,25.00
2018-06-17T07:23:31.973Z,25.30
2018-06-17T07:26:44.881Z,25.40
2018-06-17T07:29:27.089Z,25.40
2018-06-17T07:31:55.534Z,25.50
2018-06-17T07:34:23.976Z,26.00
2018-06-17T07:36:52.408Z,26.80
2018-06-17T07:40:11.605Z,27.20
2018-06-17T07:42:40.014Z,27.70
2018-06-17T07:45:08.475Z,29.00
2018-06-17T07:47:36.885Z,30.10
2018-06-17T07:52:18.507Z,30.00
2018-06-17T07:54:47.264Z,31.80
2018-06-17T07:57:16.893Z,31.80
2018-06-17T07:59:45.508Z,31.90
2018-06-17T08:02:14.464Z,33.30
2018-06-17T08:04:42.939Z,33.90
2018-06-17T08:07:11.300Z,33.90
2018-06-17T08:09:39.740Z,33.70
2018-06-17T08:12:09.709Z,32.50
2018-06-17T08:14:38.285Z,33.90
2018-06-17T08:17:06.914Z,34.20
2018-06-17T08:19:35.420Z,35.10
2018-06-17T08:22:04.240Z,33.90
2018-06-17T08:24:33.216Z,33.90
2018-06-17T08:27:01.677Z,34.90
2018-06-17T08:29:30.093Z,34.00
2018-06-17T08:31:58.564Z,34.00
2018-06-17T08:34:27.030Z,33.30
2018-06-17T08:36:55.437Z,33.20
2018-06-17T08:39:24.728Z,32.50
2018-06-17T08:41:53.184Z,30.20
2018-06-17T08:44:22.044Z,29.90
2018-06-17T08:46:50.900Z,28.90
2018-06-17T08:49:19.949Z,27.90
2018-06-17T08:51:48.393Z,27.30
2018-06-17T08:54:16.824Z,27.30
2018-06-17T08:56:45.281Z,26.70
2018-06-17T08:59:13.696Z,25.80
2018-06-17T09:01:42.148Z,25.40
2018-06-17T09:04:10.536Z,26.60
2018-06-17T09:06:38.948Z,27.80
2018-06-17T09:09:09.732Z,27.90
2018-06-17T09:11:38.220Z,28.00
2018-06-17T09:14:06.806Z,27.70
2018-06-17T09:16:35.285Z,27.30
2018-06-17T09:19:03.725Z,27.10
2018-06-17T09:21:32.162Z,27.30
2018-06-17T09:24:00.728Z,28.00
2018-06-17T09:26:29.153Z,28.50
2018-06-17T09:28:57.691Z,28.70
2018-06-17T09:31:26.271Z,29.40
2018-06-17T09:33:54.704Z,31.50
2018-06-17T09:36:23.111Z,31.90
2018-06-17T09:38:51.530Z,32.20
2018-06-17T09:41:19.965Z,31.70
2018-06-17T09:43:48.425Z,32.30
2018-06-17T09:46:16.858Z,32.70
2018-06-17T09:48:45.326Z,31.50
2018-06-17T09:51:13.725Z,31.40
2018-06-17T09:53:42.626Z,31.80
2018-06-17T09:56:11.035Z,31.60
2018-06-17T09:58:39.645Z,30.90
2018-06-17T10:01:08.122Z,31.10
2018-06-17T10:03:36.616Z,31.30
2018-06-17T10:06:05.090Z,30.90
2018-06-17T10:08:33.548Z,31.10
2018-06-17T10:11:03.088Z,31.20
2018-06-17T10:13:33.162Z,31.10
2018-06-17T10:16:01.835Z,31.00
2018-06-17T10:18:30.842Z,31.10
2018-06-17T10:20:59.357Z,30.60
2018-06-17T10:23:27.840Z,30.10
2018-06-17T10:25:56.366Z,29.70
2018-06-17T10:28:25.958Z,29.40
2018-06-17T10:30:55.204Z,29.20
2018-06-17T10:33:23.893Z,28.40
2018-06-17T10:35:52.340Z,27.00
2018-06-17T10:38:20.740Z,26.00
2018-06-17T10:40:49.196Z,25.50
2018-06-17T10:43:19.864Z,25.40
2018-06-17T10:45:48.333Z,25.00
2018-06-17T10:48:16.732Z,24.90
2018-06-17T10:50:45.296Z,24.80
2018-06-17T10:53:13.705Z,24.70
2018-06-17T10:55:42.520Z,24.60
2018-06-17T10:58:10.897Z,24.60
2018-06-17T11:00:39.415Z,24.40
2018-06-17T11:03:07.826Z,24.20
2018-06-17T11:05:36.288Z,24.10
2018-06-17T11:08:04.858Z,24.10
2018-06-17T11:10:33.492Z,24.00
2018-06-17T11:13:01.929Z,24.00
2018-06-17T11:15:30.353Z,24.00
2018-06-17T11:17:58.843Z,23.90
2018-06-17T11:20:27.716Z,24.10
2018-06-17T11:22:56.108Z,24.20
2018-06-17T11:25:24.543Z,24.30
2018-06-17T11:27:52.944Z,24.50
2018-06-17T11:30:21.908Z,24.40
2018-06-17T11:32:50.344Z,24.40
2018-06-17T11:35:18.769Z,24.60
2018-06-17T11:37:47.405Z,24.70
2018-06-17T11:40:15.852Z,24.80
2018-06-17T11:42:44.261Z,24.90
2018-06-17T11:45:12.712Z,24.90
2018-06-17T11:47:41.110Z,24.70
2018-06-17T11:50:09.563Z,24.60
2018-06-17T11:52:37.968Z,24.60
2018-06-17T11:55:06.580Z,24.60
2018-06-17T11:57:35.290Z,24.60
2018-06-17T12:00:03.811Z,24.70
2018-06-17T12:02:32.240Z,24.70
2018-06-17T12:05:00.685Z,24.80
2018-06-17T12:07:29.089Z,25.20
2018-06-17T12:09:57.544Z,25.50
2018-06-17T12:12:26.023Z,25.10
2018-06-17T12:14:54.533Z,25.00
2018-06-17T12:17:23.696Z,24.90
2018-06-17T12:19:52.107Z,25.00
2018-06-17T12:22:20.516Z,24.90
2018-06-17T12:24:48.925Z,24.70
2018-06-17T12:27:17.370Z,24.60
2018-06-17T12:29:45.925Z,24.70
2018-06-17T12:32:14.344Z,24.60
2018-06-17T12:34:42.754Z,24.20
2018-06-17T12:37:11.192Z,24.20
2018-06-17T12:39:39.599Z,24.30
2018-06-17T12:42:08.049Z,24.40
2018-06-17T12:44:36.585Z,24.30
2018-06-17T12:47:05.104Z,24.10
2018-06-17T12:49:33.518Z,24.00
2018-06-17T12:52:01.941Z,24.10
2018-06-17T12:54:30.406Z,24.20
2018-06-17T12:56:58.857Z,24.10
2018-06-17T12:59:27.368Z,24.10
2018-06-17T13:01:55.901Z,24.20
2018-06-17T13:04:24.327Z,24.50
2018-06-17T13:09:20.864Z,24.60
2018-06-17T13:11:49.369Z,24.00
2018-06-17T13:14:17.920Z,23.80
2018-06-17T13:16:46.447Z,23.70
2018-06-17T13:19:14.937Z,23.50
2018-06-17T13:21:43.335Z,23.50
2018-06-17T13:24:11.752Z,23.40
2018-06-17T13:26:40.200Z,23.40
2018-06-17T13:29:08.645Z,23.30
2018-06-17T13:31:37.099Z,23.40
2018-06-17T13:34:05.776Z,23.60
2018-06-17T13:36:34.895Z,23.70
2018-06-17T13:39:04.445Z,23.70
2018-06-17T13:41:32.890Z,23.60
2018-06-17T13:44:01.309Z,23.40
2018-06-17T13:46:29.716Z,23.40
2018-06-17T13:48:58.141Z,23.40
2018-06-17T13:51:26.583Z,23.50
2018-06-17T13:53:55.059Z,23.60
2018-06-17T13:56:23.524Z,23.70
2018-06-17T13:58:52.313Z,23.80
2018-06-17T14:01:20.812Z,23.90
2018-06-17T14:03:49.382Z,24.00
2018-06-17T14:06:17.825Z,24.10
2018-06-17T14:08:46.242Z,24.40
2018-06-17T14:11:14.649Z,24.30
2018-06-17T14:16:11.264Z,24.20
2018-06-17T14:18:39.738Z,24.10
2018-06-17T14:21:08.225Z,23.80
2018-06-17T14:23:36.685Z,23.60
2018-06-17T14:26:05.263Z,23.40
2018-06-17T14:28:33.881Z,23.30
2018-06-17T14:31:02.300Z,23.30
2018-06-17T14:33:30.982Z,23.30
2018-06-17T14:35:59.387Z,23.40
2018-06-17T14:38:27.831Z,23.30
2018-06-17T14:41:01.517Z,23.30
2018-06-17T14:46:08.860Z,23.30
2018-06-17T14:48:42.609Z,23.30
2018-06-17T14:51:16.188Z,23.30
2018-06-17T14:53:44.637Z,23.20
2018-06-17T14:58:41.149Z,23.30
2018-06-17T15:01:09.870Z,23.50
2018-06-17T15:03:38.341Z,23.70
2018-06-17T15:06:07.548Z,23.90
2018-06-17T15:08:36.015Z,23.90
2018-06-17T15:11:04.451Z,23.90
2018-06-17T15:13:32.974Z,23.90
2018-06-17T15:16:01.424Z,23.90
2018-06-17T15:18:30.129Z,24.00
2018-06-17T15:20:58.548Z,24.10
2018-06-17T15:23:26.989Z,24.10
2018-06-17T15:25:55.421Z,24.30
2018-06-17T15:28:23.955Z,24.30
2018-06-17T15:30:52.421Z,24.20
2018-06-17T15:33:26.272Z,24.10
2018-06-17T15:36:00.134Z,24.00
2018-06-17T15:41:07.536Z,24.10
2018-06-17T15:43:36.018Z,24.00
2018-06-17T15:46:04.465Z,23.90
2018-06-17T15:48:33.002Z,23.70
2018-06-17T15:51:01.642Z,23.60
2018-06-17T15:53:30.078Z,23.50
2018-06-17T15:55:58.546Z,23.40
2018-06-17T15:58:26.944Z,23.30
2018-06-17T16:00:55.514Z,23.20
2018-06-17T16:03:24.161Z,23.10
2018-06-17T16:05:52.627Z,23.10
2018-06-17T16:08:21.117Z,23.10
2018-06-17T16:10:50.296Z,23.20
2018-06-17T16:13:24.033Z,23.20
2018-06-17T16:15:57.768Z,23.20
2018-06-17T16:19:30.025Z,23.20
2018-06-17T16:21:58.537Z,23.20
2018-06-17T16:24:26.988Z,23.20
2018-06-17T16:26:55.645Z,23.10
2018-06-17T16:29:24.115Z,23.00
2018-06-17T16:31:52.696Z,22.70
2018-06-17T16:34:21.104Z,22.70
2018-06-17T16:36:49.525Z,22.70
2018-06-17T16:39:17.981Z,22.50
2018-06-17T16:41:46.653Z,22.40
2018-06-17T16:44:15.380Z,22.30
2018-06-17T16:46:43.837Z,22.40
2018-06-17T16:49:12.429Z,22.30
2018-06-17T16:51:46.284Z,22.20
2018-06-17T16:54:20.161Z,22.10
2018-06-17T16:56:54.224Z,22.00
2018-06-17T16:59:28.378Z,22.00
2018-06-17T17:01:57.019Z,22.00
2018-06-17T17:04:25.429Z,22.00
2018-06-17T17:07:24.657Z,22.00
2018-06-17T17:12:21.871Z,21.80
2018-06-17T17:14:50.345Z,21.60
2018-06-17T17:17:19.025Z,21.30
2018-06-17T17:19:47.674Z,21.20
2018-06-17T17:22:16.099Z,21.10
2018-06-17T17:24:44.704Z,20.90
2018-06-17T17:27:13.543Z,20.60
2018-06-17T17:29:41.990Z,20.30
2018-06-17T17:32:15.899Z,19.80
2018-06-17T17:36:53.576Z,19.70
2018-06-17T17:39:27.445Z,18.90
2018-06-17T17:41:55.884Z,18.80
2018-06-17T17:44:24.273Z,18.70
2018-06-17T17:46:58.265Z,18.60
2018-06-17T17:49:26.675Z,18.50
2018-06-17T17:51:55.104Z,18.50
2018-06-17T17:54:23.673Z,18.50
2018-06-17T17:56:51.950Z,18.50
2018-06-17T17:59:20.389Z,18.60
2018-06-17T18:01:48.804Z,18.60
2018-06-17T18:04:17.237Z,18.60
2018-06-17T18:06:46.631Z,18.70
2018-06-17T18:09:15.055Z,18.80
2018-06-17T18:11:43.456Z,18.80
2018-06-17T18:14:12.038Z,18.70
2018-06-17T18:16:40.475Z,18.70
2018-06-17T18:19:08.900Z,18.70
2018-06-17T18:21:37.429Z,18.70
2018-06-17T18:24:05.981Z,18.70
2018-06-17T18:26:39.832Z,18.70
2018-06-17T18:29:13.587Z,18.70
2018-06-17T18:31:47.448Z,18.70
2018-06-17T18:36:49.530Z,18.70
2018-06-17T18:39:17.972Z,18.80
2018-06-17T18:41:49.215Z,18.60
2018-06-17T18:44:17.604Z,18.50
2018-06-17T18:46:46.208Z,18.20
2018-06-17T18:49:14.628Z,17.90
2018-06-17T18:51:43.055Z,17.70
2018-06-17T18:54:12.049Z,17.40
2018-06-17T18:56:40.492Z,17.30
2018-06-17T18:59:08.891Z,17.20
2018-06-17T19:01:37.357Z,17.10
2018-06-17T19:04:05.797Z,16.90
2018-06-17T19:06:34.249Z,16.80
2018-06-17T19:09:08.152Z,16.80
2018-06-17T19:14:15.340Z,16.60
2018-06-17T19:16:49.479Z,16.50
2018-06-17T19:19:17.885Z,16.40
2018-06-17T19:21:46.608Z,16.40
2018-06-17T19:24:15.017Z,16.40
2018-06-17T19:26:43.488Z,16.50
2018-06-17T19:29:11.973Z,16.50
2018-06-17T19:31:40.491Z,16.60
2018-06-17T19:34:08.931Z,16.70
2018-06-17T19:36:37.465Z,16.80
2018-06-17T19:39:08.934Z,16.80
2018-06-17T19:41:37.397Z,16.80
2018-06-17T19:46:33.977Z,17.00
2018-06-17T19:49:02.568Z,17.10
2018-06-17T19:51:36.310Z,17.10
2018-06-17T19:56:17.893Z,17.10
2018-06-17T19:58:51.791Z,17.20
2018-06-17T20:01:20.224Z,17.20
2018-06-17T20:03:48.680Z,17.30
2018-06-17T20:06:17.156Z,17.30
2018-06-17T20:08:45.526Z,17.30
2018-06-17T20:13:42.144Z,17.30
2018-06-17T20:16:10.533Z,17.30
2018-06-17T20:18:38.977Z,17.30
2018-06-17T20:21:07.525Z,17.30
2018-06-17T20:23:35.976Z,17.30
2018-06-17T20:26:04.404Z,17.40
2018-06-17T20:28:32.982Z,17.40
2018-06-17T20:31:05.698Z,17.40
2018-06-17T20:33:39.590Z,17.40
2018-06-17T20:36:13.204Z,17.40
2018-06-17T20:38:46.946Z,17.40
2018-06-17T20:41:20.712Z,17.40
2018-06-17T20:43:54.192Z,17.40
2018-06-17T20:46:22.686Z,17.40
2018-06-17T20:48:51.426Z,17.40
2018-06-17T20:51:20.146Z,17.40
2018-06-17T20:53:48.987Z,17.40
2018-06-17T20:56:17.547Z,17.30
2018-06-17T20:58:45.995Z,17.30
2018-06-17T21:01:14.437Z,17.30
2018-06-17T21:03:42.873Z,17.30
2018-06-17T21:06:11.292Z,17.30
2018-06-17T21:08:39.745Z,17.30
2018-06-17T21:11:08.132Z,17.30
2018-06-17T21:13:36.561Z,17.30
2018-06-17T21:16:05.006Z,17.30
2018-06-17T21:20:40.548Z,17.30
2018-06-17T21:23:14.344Z,17.30
2018-06-17T21:25:48.518Z,17.30
2018-06-17T21:28:17.125Z,17.20
2018-06-17T21:30:45.585Z,17.20
2018-06-17T21:33:14.160Z,17.20
2018-06-17T21:35:42.573Z,17.20
2018-06-17T21:38:11.002Z,17.10
2018-06-17T21:40:39.432Z,17.10
2018-06-17T21:43:07.856Z,17.10
2018-06-17T21:45:36.348Z,17.10
2018-06-17T21:48:04.804Z,17.10
2018-06-17T21:50:33.444Z,17.10
2018-06-17T21:53:01.864Z,17.10
2018-06-17T21:55:30.317Z,17.10
2018-06-17T21:57:58.787Z,17.10
2018-06-17T22:00:27.305Z,17.10
2018-06-17T22:02:55.745Z,17.10
2018-06-17T22:05:24.202Z,17.00
2018-06-17T22:07:57.841Z,17.00
2018-06-17T22:10:31.688Z,16.90
2018-06-17T22:13:01.473Z,16.80
2018-06-17T22:15:35.324Z,16.80
2018-06-17T22:18:04.631Z,16.80
2018-06-17T22:21:57.488Z,16.80
2018-06-17T22:24:25.888Z,16.80
2018-06-17T22:26:54.623Z,16.80
2018-06-17T22:29:23.079Z,16.80
2018-06-17T22:31:51.492Z,16.80
2018-06-17T22:34:19.904Z,16.80
2018-06-17T22:36:48.335Z,16.90
2018-06-17T22:39:16.721Z,16.80
2018-06-17T22:41:45.137Z,16.90
2018-06-17T22:44:13.568Z,16.90
2018-06-17T22:46:42.038Z,16.90
2018-06-17T22:49:10.456Z,16.90
2018-06-17T22:51:38.944Z,16.80
2018-06-17T22:54:18.614Z,16.80
2018-06-17T22:56:52.346Z,16.80
2018-06-17T22:59:26.097Z,16.80
2018-06-17T23:02:00.071Z,16.80
2018-06-17T23:04:33.810Z,16.80
2018-06-17T23:07:07.652Z,16.80
2018-06-17T23:09:39.206Z,16.70
2018-06-17T23:12:07.718Z,16.70
2018-06-17T23:14:36.104Z,16.70
2018-06-17T23:17:04.608Z,16.60
2018-06-17T23:19:33.129Z,16.60
2018-06-17T23:22:01.781Z,16.60
2018-06-17T23:24:30.185Z,16.60
2018-06-17T23:26:58.620Z,16.60
2018-06-17T23:29:27.029Z,16.50
2018-06-17T23:31:55.459Z,16.50
2018-06-17T23:34:23.868Z,16.50
2018-06-17T23:36:52.393Z,16.40
2018-06-17T23:39:20.849Z,16.40
2018-06-17T23:41:49.281Z,16.40
2018-06-17T23:44:17.689Z,16.40
2018-06-17T23:46:51.284Z,16.40
2018-06-17T23:49:24.929Z,16.40
2018-06-17T23:51:58.716Z,16.40
2018-06-17T23:54:32.580Z,16.30
2018-06-17T23:57:01.092Z,16.30
2018-06-17T23:59:29.692Z,16.30
